sensor_id;sensor_type;location;lat;lon;timestamp;pressure;altitude;pressure_sealevel;temperature;humidity
6899;BME280;3488;42.616;23.350;2023-02-28T00:01:20;62684.69;;;6.70;100.00
6899;BME280;3488;42.616;23.350;2023-02-28T00:03:47;62639.78;;;6.24;100.00
6899;BME280;3488;42.616;23.350;2023-02-28T00:06:15;62689.84;;;6.75;100.00
6899;BME280;3488;42.616;23.350;2023-02-28T00:08:44;62678.00;;;6.63;100.00
6899;BME280;3488;42.616;23.350;2023-02-28T00:11:12;62671.19;;;6.52;100.00
6899;BME280;3488;42.616;23.350;2023-02-28T00:13:41;62672.78;;;6.56;100.00
6899;BME280;3488;42.616;23.350;2023-02-28T00:16:11;62683.59;;;6.66;100.00
6899;BME280;3488;42.616;23.350;2023-02-28T00:18:40;62653.69;;;6.37;100.00
6899;BME280;3488;42.616;23.350;2023-02-28T00:21:09;62691.81;;;6.72;100.00
6899;BME280;3488;42.616;23.350;2023-02-28T00:23:37;62698.03;;;6.80;100.00
6899;BME280;3488;42.616;23.350;2023-02-28T00:26:06;62696.50;;;6.79;100.00
6899;BME280;3488;42.616;23.350;2023-02-28T00:28:33;62699.03;;;6.79;100.00
6899;BME280;3488;42.616;23.350;2023-02-28T00:31:00;62694.91;;;6.75;100.00
6899;BME280;3488;42.616;23.350;2023-02-28T00:33:28;62695.00;;;6.80;100.00
6899;BME280;3488;42.616;23.350;2023-02-28T00:36:03;62700.63;;;6.83;100.00
6899;BME280;3488;42.616;23.350;2023-02-28T00:38:30;62709.88;;;6.89;100.00
6899;BME280;3488;42.616;23.350;2023-02-28T00:40:57;62714.00;;;6.93;100.00
6899;BME280;3488;42.616;23.350;2023-02-28T00:43:31;62714.00;;;6.93;100.00
6899;BME280;3488;42.616;23.350;2023-02-28T00:45:59;62709.97;;;6.94;100.00
6899;BME280;3488;42.616;23.350;2023-02-28T00:48:26;62705.72;;;6.85;100.00
6899;BME280;3488;42.616;23.350;2023-02-28T00:50:53;62689.25;;;6.69;100.00
6899;BME280;3488;42.616;23.350;2023-02-28T00:53:20;62688.75;;;6.71;100.00
6899;BME280;3488;42.616;23.350;2023-02-28T00:55:49;62681.59;;;6.67;100.00
6899;BME280;3488;42.616;23.350;2023-02-28T00:58:15;62663.00;;;6.46;100.00
6899;BME280;3488;42.616;23.350;2023-02-28T01:00:44;62640.78;;;6.22;100.00
6899;BME280;3488;42.616;23.350;2023-02-28T01:03:15;62674.22;;;6.52;100.00
6899;BME280;3488;42.616;23.350;2023-02-28T01:05:41;62668.59;;;6.49;100.00
6899;BME280;3488;42.616;23.350;2023-02-28T01:08:08;62670.66;;;6.51;100.00
6899;BME280;3488;42.616;23.350;2023-02-28T01:10:35;62661.44;;;6.45;100.00
6899;BME280;3488;42.616;23.350;2023-02-28T01:13:04;62656.78;;;6.40;100.00
6899;BME280;3488;42.616;23.350;2023-02-28T01:15:31;62657.28;;;6.38;100.00
6899;BME280;3488;42.616;23.350;2023-02-28T01:18:00;62645.41;;;6.27;100.00
6899;BME280;3488;42.616;23.350;2023-02-28T01:20:27;62627.41;;;6.12;100.00
6899;BME280;3488;42.616;23.350;2023-02-28T01:22:54;62634.56;;;6.16;100.00
6899;BME280;3488;42.616;23.350;2023-02-28T01:25:21;62627.34;;;6.09;100.00
6899;BME280;3488;42.616;23.350;2023-02-28T01:27:48;62640.72;;;6.20;100.00
6899;BME280;3488;42.616;23.350;2023-02-28T01:30:16;62626.91;;;6.11;100.00
6899;BME280;3488;42.616;23.350;2023-02-28T01:32:42;62597.97;;;5.80;100.00
6899;BME280;3488;42.616;23.350;2023-02-28T01:35:11;62583.09;;;5.68;100.00
6899;BME280;3488;42.616;23.350;2023-02-28T01:37:38;62598.06;;;5.83;100.00
6899;BME280;3488;42.616;23.350;2023-02-28T01:40:06;62614.44;;;5.94;100.00
6899;BME280;3488;42.616;23.350;2023-02-28T01:42:33;62615.56;;;6.00;100.00
6899;BME280;3488;42.616;23.350;2023-02-28T01:45:04;62634.03;;;6.13;100.00
6899;BME280;3488;42.616;23.350;2023-02-28T01:47:36;62610.91;;;5.96;100.00
6899;BME280;3488;42.616;23.350;2023-02-28T01:50:07;62629.44;;;6.11;100.00
6899;BME280;3488;42.616;23.350;2023-02-28T01:52:37;62636.25;;;6.23;100.00
6899;BME280;3488;42.616;23.350;2023-02-28T01:55:06;62650.53;;;6.29;100.00
6899;BME280;3488;42.616;23.350;2023-02-28T01:57:36;62644.41;;;6.28;100.00
6899;BME280;3488;42.616;23.350;2023-02-28T02:00:07;62642.88;;;6.27;100.00
6899;BME280;3488;42.616;23.350;2023-02-28T02:02:36;62639.31;;;6.26;100.00
6899;BME280;3488;42.616;23.350;2023-02-28T02:05:06;62645.00;;;6.31;100.00
6899;BME280;3488;42.616;23.350;2023-02-28T02:07:35;62657.78;;;6.39;100.00
6899;BME280;3488;42.616;23.350;2023-02-28T02:10:10;62630.50;;;6.15;100.00
6899;BME280;3488;42.616;23.350;2023-02-28T02:13:08;62641.28;;;6.23;100.00
6899;BME280;3488;42.616;23.350;2023-02-28T02:15:41;62646.47;;;6.30;100.00
6899;BME280;3488;42.616;23.350;2023-02-28T02:18:16;62641.75;;;6.21;100.00
6899;BME280;3488;42.616;23.350;2023-02-28T02:24:11;62654.75;;;6.38;100.00
6899;BME280;3488;42.616;23.350;2023-02-28T02:30:07;62616.06;;;6.01;100.00
6899;BME280;3488;42.616;23.350;2023-02-28T02:33:17;62607.78;;;5.90;100.00
6899;BME280;3488;42.616;23.350;2023-02-28T02:35:52;62603.19;;;5.88;100.00
6899;BME280;3488;42.616;23.350;2023-02-28T02:38:30;62589.78;;;5.75;100.00
6899;BME280;3488;42.616;23.350;2023-02-28T02:41:04;62573.25;;;5.56;100.00
6899;BME280;3488;42.616;23.350;2023-02-28T02:43:35;62605.22;;;5.88;100.00
6899;BME280;3488;42.616;23.350;2023-02-28T02:46:06;62609.38;;;5.94;100.00
6899;BME280;3488;42.616;23.350;2023-02-28T02:48:38;62627.31;;;6.07;100.00
6899;BME280;3488;42.616;23.350;2023-02-28T02:51:11;62607.84;;;5.93;100.00
6899;BME280;3488;42.616;23.350;2023-02-28T02:53:43;62586.22;;;5.74;100.00
6899;BME280;3488;42.616;23.350;2023-02-28T02:56:17;62585.16;;;5.70;100.00
6899;BME280;3488;42.616;23.350;2023-02-28T02:58:47;62596.03;;;5.83;100.00
6899;BME280;3488;42.616;23.350;2023-02-28T03:01:19;62573.78;;;5.57;100.00
6899;BME280;3488;42.616;23.350;2023-02-28T03:03:55;62595.91;;;5.78;100.00
6899;BME280;3488;42.616;23.350;2023-02-28T03:06:24;62589.31;;;5.77;100.00
6899;BME280;3488;42.616;23.350;2023-02-28T03:08:52;62588.75;;;5.74;100.00
6899;BME280;3488;42.616;23.350;2023-02-28T03:11:20;62584.69;;;5.72;100.00
6899;BME280;3488;42.616;23.350;2023-02-28T03:14:14;62603.66;;;5.86;100.00
6899;BME280;3488;42.616;23.350;2023-02-28T03:17:12;62610.97;;;5.98;100.00
6899;BME280;3488;42.616;23.350;2023-02-28T03:19:51;62592.81;;;5.75;100.00
6899;BME280;3488;42.616;23.350;2023-02-28T03:22:37;62574.88;;;5.63;100.00
6899;BME280;3488;42.616;23.350;2023-02-28T03:25:10;62596.94;;;5.79;100.00
6899;BME280;3488;42.616;23.350;2023-02-28T03:27:43;62577.41;;;5.63;100.00
6899;BME280;3488;42.616;23.350;2023-02-28T03:30:22;62557.75;;;5.39;100.00
6899;BME280;3488;42.616;23.350;2023-02-28T03:32:55;62537.25;;;5.24;100.00
6899;BME280;3488;42.616;23.350;2023-02-28T03:35:25;62556.84;;;5.45;100.00
6899;BME280;3488;42.616;23.350;2023-02-28T03:38:04;62563.97;;;5.47;100.00
6899;BME280;3488;42.616;23.350;2023-02-28T03:40:33;62558.34;;;5.44;100.00
6899;BME280;3488;42.616;23.350;2023-02-28T03:43:10;62570.16;;;5.53;100.00
6899;BME280;3488;42.616;23.350;2023-02-28T03:45:41;62573.78;;;5.57;100.00
6899;BME280;3488;42.616;23.350;2023-02-28T03:48:13;62546.56;;;5.35;100.00
6899;BME280;3488;42.616;23.350;2023-02-28T03:50:46;62536.78;;;5.26;100.00
6899;BME280;3488;42.616;23.350;2023-02-28T03:53:18;62544.97;;;5.31;100.00
6899;BME280;3488;42.616;23.350;2023-02-28T03:55:48;62562.03;;;5.50;100.00
6899;BME280;3488;42.616;23.350;2023-02-28T03:58:21;62574.31;;;5.60;100.00
6899;BME280;3488;42.616;23.350;2023-02-28T04:00:54;62579.91;;;5.60;100.00
6899;BME280;3488;42.616;23.350;2023-02-28T04:03:23;62581.06;;;5.69;100.00
6899;BME280;3488;42.616;23.350;2023-02-28T04:05:52;62585.66;;;5.71;100.00
6899;BME280;3488;42.616;23.350;2023-02-28T04:08:22;62575.84;;;5.59;100.00
6899;BME280;3488;42.616;23.350;2023-02-28T04:10:53;62586.69;;;5.72;100.00
6899;BME280;3488;42.616;23.350;2023-02-28T04:13:22;62588.75;;;5.74;100.00
6899;BME280;3488;42.616;23.350;2023-02-28T04:15:49;62568.72;;;5.57;100.00
6899;BME280;3488;42.616;23.350;2023-02-28T04:18:16;62577.38;;;5.60;100.00
6899;BME280;3488;42.616;23.350;2023-02-28T04:20:43;62572.25;;;5.58;100.00
6899;BME280;3488;42.616;23.350;2023-02-28T04:23:10;62563.97;;;5.47;100.00
6899;BME280;3488;42.616;23.350;2023-02-28T04:25:39;62540.31;;;5.27;100.00
6899;BME280;3488;42.616;23.350;2023-02-28T04:28:07;62546.63;;;5.38;100.00
6899;BME280;3488;42.616;23.350;2023-02-28T04:30:35;62553.72;;;5.40;100.00
6899;BME280;3488;42.616;23.350;2023-02-28T04:33:02;62537.72;;;5.22;100.00
6899;BME280;3488;42.616;23.350;2023-02-28T04:35:29;62556.25;;;5.40;100.00
6899;BME280;3488;42.616;23.350;2023-02-28T04:37:58;62563.00;;;5.49;100.00
6899;BME280;3488;42.616;23.350;2023-02-28T04:40:25;62554.22;;;5.40;100.00
6899;BME280;3488;42.616;23.350;2023-02-28T04:42:53;62532.09;;;5.19;100.00
6899;BME280;3488;42.616;23.350;2023-02-28T04:45:20;62532.56;;;5.17;100.00
6899;BME280;3488;42.616;23.350;2023-02-28T04:47:48;62533.13;;;5.20;100.00
6899;BME280;3488;42.616;23.350;2023-02-28T04:50:15;62551.03;;;5.32;100.00
6899;BME280;3488;42.616;23.350;2023-02-28T04:52:42;62561.50;;;5.50;100.00
6899;BME280;3488;42.616;23.350;2023-02-28T04:55:09;62557.94;;;5.49;100.00
6899;BME280;3488;42.616;23.350;2023-02-28T04:57:36;62572.25;;;5.58;100.00
6899;BME280;3488;42.616;23.350;2023-02-28T05:00:07;62564.56;;;5.50;100.00
6899;BME280;3488;42.616;23.350;2023-02-28T05:02:37;62568.66;;;5.54;100.00
6899;BME280;3488;42.616;23.350;2023-02-28T05:05:05;62588.19;;;5.71;100.00
6899;BME280;3488;42.616;23.350;2023-02-28T05:07:32;62603.09;;;5.83;100.00
6899;BME280;3488;42.616;23.350;2023-02-28T05:09:59;62595.44;;;5.80;100.00
6899;BME280;3488;42.616;23.350;2023-02-28T05:12:26;62583.09;;;5.68;100.00
6899;BME280;3488;42.616;23.350;2023-02-28T05:14:53;62590.84;;;5.78;100.00
6899;BME280;3488;42.616;23.350;2023-02-28T05:17:21;62571.75;;;5.57;100.00
6899;BME280;3488;42.616;23.350;2023-02-28T05:19:48;62565.63;;;5.54;100.00
6899;BME280;3488;42.616;23.350;2023-02-28T05:22:16;62554.22;;;5.40;100.00
6899;BME280;3488;42.616;23.350;2023-02-28T05:24:43;62537.31;;;5.26;100.00
6899;BME280;3488;42.616;23.350;2023-02-28T05:27:10;62535.69;;;5.22;100.00
6899;BME280;3488;42.616;23.350;2023-02-28T05:29:37;62541.31;;;5.25;100.00
6899;BME280;3488;42.616;23.350;2023-02-28T05:32:09;62540.78;;;5.25;100.00
6899;BME280;3488;42.616;23.350;2023-02-28T05:34:39;62544.97;;;5.31;100.00
6899;BME280;3488;42.616;23.350;2023-02-28T05:37:06;62546.53;;;5.33;100.00
6899;BME280;3488;42.616;23.350;2023-02-28T05:39:37;62543.91;;;5.28;100.00
6899;BME280;3488;42.616;23.350;2023-02-28T05:42:04;62558.25;;;5.39;100.00
6899;BME280;3488;42.616;23.350;2023-02-28T05:44:31;62557.84;;;5.44;100.00
6899;BME280;3488;42.616;23.350;2023-02-28T05:46:59;62577.41;;;5.63;100.00
6899;BME280;3488;42.616;23.350;2023-02-28T05:49:26;62585.16;;;5.70;100.00
6899;BME280;3488;42.616;23.350;2023-02-28T05:51:55;62613.41;;;5.93;100.00
6899;BME280;3488;42.616;23.350;2023-02-28T05:54:22;62590.84;;;5.78;100.00
6899;BME280;3488;42.616;23.350;2023-02-28T05:56:49;62605.16;;;5.85;100.00
6899;BME280;3488;42.616;23.350;2023-02-28T05:59:16;62619.22;;;6.06;100.00
6899;BME280;3488;42.616;23.350;2023-02-28T06:01:45;62595.44;;;5.80;100.00
6899;BME280;3488;42.616;23.350;2023-02-28T06:04:14;62615.59;;;6.03;100.00
6899;BME280;3488;42.616;23.350;2023-02-28T06:06:43;62632.56;;;6.17;100.00
6899;BME280;3488;42.616;23.350;2023-02-28T06:09:12;62607.38;;;5.95;100.00
6899;BME280;3488;42.616;23.350;2023-02-28T06:11:41;62602.22;;;5.90;100.00
6899;BME280;3488;42.616;23.350;2023-02-28T06:14:14;62583.09;;;5.68;100.00
6899;BME280;3488;42.616;23.350;2023-02-28T06:16:42;62559.97;;;5.48;100.00
6899;BME280;3488;42.616;23.350;2023-02-28T06:19:10;62553.25;;;5.42;100.00
6899;BME280;3488;42.616;23.350;2023-02-28T06:21:38;62569.75;;;5.58;100.00
6899;BME280;3488;42.616;23.350;2023-02-28T06:24:06;62602.22;;;5.90;100.00
6899;BME280;3488;42.616;23.350;2023-02-28T06:26:35;62626.91;;;6.11;100.00
6899;BME280;3488;42.616;23.350;2023-02-28T06:29:02;62611.50;;;5.99;100.00
6899;BME280;3488;42.616;23.350;2023-02-28T06:31:30;62638.25;;;6.22;100.00
6899;BME280;3488;42.616;23.350;2023-02-28T06:33:57;62614.06;;;6.01;100.00
6899;BME280;3488;42.616;23.350;2023-02-28T06:36:27;62633.66;;;6.20;100.00
6899;BME280;3488;42.616;23.350;2023-02-28T06:38:54;62624.34;;;6.09;100.00
6899;BME280;3488;42.616;23.350;2023-02-28T06:41:23;62654.78;;;6.41;100.00
6899;BME280;3488;42.616;23.350;2023-02-28T06:43:52;62670.72;;;6.54;100.00
6899;BME280;3488;42.616;23.350;2023-02-28T06:46:20;62681.06;;;6.66;100.00
6899;BME280;3488;42.616;23.350;2023-02-28T06:48:49;62687.28;;;6.72;100.00
6899;BME280;3488;42.616;23.350;2023-02-28T06:51:18;62682.13;;;6.67;100.00
6899;BME280;3488;42.616;23.350;2023-02-28T06:53:48;62708.88;;;6.91;100.00
6899;BME280;3488;42.616;23.350;2023-02-28T06:56:18;62727.50;;;7.12;100.00
6899;BME280;3488;42.616;23.350;2023-02-28T06:58:46;62743.91;;;7.23;100.00
6899;BME280;3488;42.616;23.350;2023-02-28T07:01:15;62756.44;;;7.42;100.00
6899;BME280;3488;42.616;23.350;2023-02-28T07:03:42;62788.22;;;7.61;100.00
6899;BME280;3488;42.616;23.350;2023-02-28T07:06:09;62787.88;;;7.70;100.00
6899;BME280;3488;42.616;23.350;2023-02-28T07:08:36;62811.09;;;7.93;100.00
6899;BME280;3488;42.616;23.350;2023-02-28T07:11:05;62829.63;;;8.08;100.00
6899;BME280;3488;42.616;23.350;2023-02-28T07:13:32;62833.19;;;8.09;100.00
6899;BME280;3488;42.616;23.350;2023-02-28T07:16:01;62838.34;;;8.14;100.00
6899;BME280;3488;42.616;23.350;2023-02-28T07:18:30;62786.84;;;7.69;100.00
6899;BME280;3488;42.616;23.350;2023-02-28T07:20:58;62828.03;;;8.04;100.00
6899;BME280;3488;42.616;23.350;2023-02-28T07:23:24;62833.78;;;8.12;100.00
6899;BME280;3488;42.616;23.350;2023-02-28T07:25:52;62864.25;;;8.42;100.00
6899;BME280;3488;42.616;23.350;2023-02-28T07:28:19;62893.19;;;8.70;100.00
6899;BME280;3488;42.616;23.350;2023-02-28T07:30:46;62914.88;;;8.91;100.00
6899;BME280;3488;42.616;23.350;2023-02-28T07:33:13;62906.00;;;8.78;100.00
6899;BME280;3488;42.616;23.350;2023-02-28T07:35:42;62923.72;;;9.02;100.00
6899;BME280;3488;42.616;23.350;2023-02-28T07:38:09;62947.38;;;9.18;100.00
6899;BME280;3488;42.616;23.350;2023-02-28T07:40:37;62944.34;;;9.20;100.00
6899;BME280;3488;42.616;23.350;2023-02-28T07:43:04;62970.13;;;9.43;100.00
6899;BME280;3488;42.616;23.350;2023-02-28T07:45:32;62991.91;;;9.66;100.00
6899;BME280;3488;42.616;23.350;2023-02-28T07:48:00;63020.38;;;9.96;100.00
6899;BME280;3488;42.616;23.350;2023-02-28T07:50:27;63063.72;;;10.31;100.00
6899;BME280;3488;42.616;23.350;2023-02-28T07:52:57;63078.78;;;10.48;100.00
6899;BME280;3488;42.616;23.350;2023-02-28T07:55:24;63078.78;;;10.48;100.00
6899;BME280;3488;42.616;23.350;2023-02-28T07:57:52;63072.56;;;10.42;100.00
6899;BME280;3488;42.616;23.350;2023-02-28T08:00:19;63086.06;;;10.58;100.00
6899;BME280;3488;42.616;23.350;2023-02-28T08:02:46;63099.00;;;10.70;100.00
6899;BME280;3488;42.616;23.350;2023-02-28T08:05:14;63120.75;;;10.91;100.00
6899;BME280;3488;42.616;23.350;2023-02-28T08:07:40;63151.75;;;11.19;100.00
6899;BME280;3488;42.616;23.350;2023-02-28T08:10:10;63150.72;;;11.18;100.00
6899;BME280;3488;42.616;23.350;2023-02-28T08:12:37;63155.94;;;11.25;100.00
6899;BME280;3488;42.616;23.350;2023-02-28T08:15:04;63130.53;;;10.98;100.00
6899;BME280;3488;42.616;23.350;2023-02-28T08:17:31;63134.06;;;10.97;100.00
6899;BME280;3488;42.616;23.350;2023-02-28T08:19:58;63149.81;;;11.24;100.00
6899;BME280;3488;42.616;23.350;2023-02-28T08:22:25;63124.91;;;10.98;100.00
6899;BME280;3488;42.616;23.350;2023-02-28T08:24:52;63132.59;;;11.00;100.00
6899;BME280;3488;42.616;23.350;2023-02-28T08:27:20;63135.75;;;11.06;100.00
6899;BME280;3488;42.616;23.350;2023-02-28T08:29:48;63156.94;;;11.24;100.00
6899;BME280;3488;42.616;23.350;2023-02-28T08:32:14;63161.09;;;11.28;100.00
6899;BME280;3488;42.616;23.350;2023-02-28T08:34:41;63155.91;;;11.23;100.00
6899;BME280;3488;42.616;23.350;2023-02-28T08:37:08;63146.59;;;11.14;100.00
6899;BME280;3488;42.616;23.350;2023-02-28T08:39:36;63163.16;;;11.30;100.00
6899;BME280;3488;42.616;23.350;2023-02-28T08:42:03;63188.53;;;11.54;100.00
6899;BME280;3488;42.616;23.350;2023-02-28T08:44:32;63222.72;;;11.88;100.00
6899;BME280;3488;42.616;23.350;2023-02-28T08:46:59;63246.06;;;12.10;100.00
6899;BME280;3488;42.616;23.350;2023-02-28T08:49:26;63231.13;;;12.01;100.00
6899;BME280;3488;42.616;23.350;2023-02-28T08:51:54;63233.66;;;12.01;100.00
6899;BME280;3488;42.616;23.350;2023-02-28T08:54:22;63213.94;;;11.79;100.00
6899;BME280;3488;42.616;23.350;2023-02-28T08:56:49;63175.53;;;11.39;100.00
6899;BME280;3488;42.616;23.350;2023-02-28T08:59:17;63176.59;;;11.40;100.00
6899;BME280;3488;42.616;23.350;2023-02-28T09:01:45;63195.84;;;11.64;100.00
6899;BME280;3488;42.616;23.350;2023-02-28T09:04:12;63211.31;;;11.74;100.00
6899;BME280;3488;42.616;23.350;2023-02-28T09:06:39;63179.25;;;11.48;100.00
6899;BME280;3488;42.616;23.350;2023-02-28T09:09:06;63199.50;;;11.70;100.00
6899;BME280;3488;42.616;23.350;2023-02-28T09:11:33;63225.34;;;11.90;100.00
6899;BME280;3488;42.616;23.350;2023-02-28T09:14:03;63224.25;;;11.87;100.00
6899;BME280;3488;42.616;23.350;2023-02-28T09:16:31;63174.53;;;11.41;100.00
6899;BME280;3488;42.616;23.350;2023-02-28T09:19:00;63146.53;;;11.11;100.00
6899;BME280;3488;42.616;23.350;2023-02-28T09:21:27;63151.75;;;11.19;100.00
6899;BME280;3488;42.616;23.350;2023-02-28T09:23:54;63134.69;;;11.02;100.00
6899;BME280;3488;42.616;23.350;2023-02-28T09:26:22;63148.09;;;11.13;100.00
6899;BME280;3488;42.616;23.350;2023-02-28T09:28:51;63171.00;;;11.42;100.00
6899;BME280;3488;42.616;23.350;2023-02-28T09:31:20;63184.91;;;11.51;100.00
6899;BME280;3488;42.616;23.350;2023-02-28T09:33:47;63178.22;;;11.47;100.00
6899;BME280;3488;42.616;23.350;2023-02-28T09:36:16;63205.19;;;11.76;100.00
6899;BME280;3488;42.616;23.350;2023-02-28T09:38:43;63179.72;;;11.46;100.00
6899;BME280;3488;42.616;23.350;2023-02-28T09:41:13;63179.28;;;11.50;100.00
6899;BME280;3488;42.616;23.350;2023-02-28T09:43:45;63207.75;;;11.76;100.00
6899;BME280;3488;42.616;23.350;2023-02-28T09:46:28;63222.81;;;11.93;100.00
6899;BME280;3488;42.616;23.350;2023-02-28T09:48:57;63200.47;;;11.66;100.00
6899;BME280;3488;42.616;23.350;2023-02-28T09:51:39;63231.59;;;11.99;100.00
6899;BME280;3488;42.616;23.350;2023-02-28T09:54:14;63266.88;;;12.35;100.00
6899;BME280;3488;42.616;23.350;2023-02-28T09:56:45;63252.78;;;12.17;100.00
6899;BME280;3488;42.616;23.350;2023-02-28T09:59:29;63259.13;;;12.30;100.00
6899;BME280;3488;42.616;23.350;2023-02-28T10:02:04;63277.13;;;12.38;100.00
6899;BME280;3488;42.616;23.350;2023-02-28T10:04:44;63300.50;;;12.63;100.00
6899;BME280;3488;42.616;23.350;2023-02-28T10:07:24;63277.78;;;12.48;100.00
6899;BME280;3488;42.616;23.350;2023-02-28T10:09:56;63276.59;;;12.37;100.00
6899;BME280;3488;42.616;23.350;2023-02-28T10:12:25;63287.06;;;12.55;100.00
6899;BME280;3488;42.616;23.350;2023-02-28T10:14:54;63323.81;;;12.86;100.00
6899;BME280;3488;42.616;23.350;2023-02-28T10:17:36;63362.69;;;13.21;100.00
6899;BME280;3488;42.616;23.350;2023-02-28T10:20:10;63372.06;;;13.32;100.00
6899;BME280;3488;42.616;23.350;2023-02-28T10:22:50;63381.03;;;13.51;99.03
6899;BME280;3488;42.616;23.350;2023-02-28T10:25:20;63355.97;;;13.17;97.05
6899;BME280;3488;42.616;23.350;2023-02-28T10:27:48;63358.63;;;13.22;100.00
6899;BME280;3488;42.616;23.350;2023-02-28T10:30:16;63402.75;;;13.67;97.97
6899;BME280;3488;42.616;23.350;2023-02-28T10:32:48;63459.75;;;14.17;96.81
6899;BME280;3488;42.616;23.350;2023-02-28T10:35:18;63444.31;;;14.10;92.38
6899;BME280;3488;42.616;23.350;2023-02-28T10:37:49;63420.88;;;13.82;92.97
6899;BME280;3488;42.616;23.350;2023-02-28T10:40:29;63440.03;;;13.98;92.21
6899;BME280;3488;42.616;23.350;2023-02-28T10:42:58;63414.69;;;13.78;91.19
6899;BME280;3488;42.616;23.350;2023-02-28T10:45:26;63407.84;;;13.64;91.78
6899;BME280;3488;42.616;23.350;2023-02-28T10:47:56;63371.06;;;13.34;92.88
6899;BME280;3488;42.616;23.350;2023-02-28T10:50:29;63359.09;;;13.20;94.56
6899;BME280;3488;42.616;23.350;2023-02-28T10:53:10;63368.44;;;13.29;95.39
6899;BME280;3488;42.616;23.350;2023-02-28T10:55:40;63370.03;;;13.33;95.64
6899;BME280;3488;42.616;23.350;2023-02-28T10:58:20;63393.34;;;13.53;96.35
6899;BME280;3488;42.616;23.350;2023-02-28T11:00:48;63377.78;;;13.38;96.01
6899;BME280;3488;42.616;23.350;2023-02-28T11:03:24;63402.59;;;13.57;95.50
6899;BME280;3488;42.616;23.350;2023-02-28T11:05:52;63354.00;;;13.20;94.18
6899;BME280;3488;42.616;23.350;2023-02-28T11:08:20;63361.13;;;13.19;92.87
6899;BME280;3488;42.616;23.350;2023-02-28T11:10:54;63380.91;;;13.43;94.02
6899;BME280;3488;42.616;23.350;2023-02-28T11:13:26;63381.44;;;13.44;92.27
6899;BME280;3488;42.616;23.350;2023-02-28T11:15:56;63353.47;;;13.19;94.55
6899;BME280;3488;42.616;23.350;2023-02-28T11:18:28;63366.41;;;13.29;95.68
6899;BME280;3488;42.616;23.350;2023-02-28T11:20:57;63372.00;;;13.27;91.76
6899;BME280;3488;42.616;23.350;2023-02-28T11:23:29;63326.44;;;12.91;95.14
6899;BME280;3488;42.616;23.350;2023-02-28T11:26:00;63364.78;;;13.23;94.23
6899;BME280;3488;42.616;23.350;2023-02-28T11:28:30;63339.84;;;12.99;92.62
6899;BME280;3488;42.616;23.350;2023-02-28T11:31:03;63309.78;;;12.69;95.79
6899;BME280;3488;42.616;23.350;2023-02-28T11:33:37;63330.03;;;12.92;97.36
6899;BME280;3488;42.616;23.350;2023-02-28T11:36:11;63346.13;;;13.07;96.43
6899;BME280;3488;42.616;23.350;2023-02-28T11:38:40;63351.38;;;13.17;93.21
6899;BME280;3488;42.616;23.350;2023-02-28T11:41:38;63366.84;;;13.25;95.45
6899;BME280;3488;42.616;23.350;2023-02-28T11:44:21;63343.03;;;13.04;94.57
6899;BME280;3488;42.616;23.350;2023-02-28T11:46:52;63345.13;;;13.09;94.17
6899;BME280;3488;42.616;23.350;2023-02-28T11:49:31;63365.84;;;13.26;94.32
6899;BME280;3488;42.616;23.350;2023-02-28T11:52:04;63379.31;;;13.37;92.24
6899;BME280;3488;42.616;23.350;2023-02-28T11:54:52;63304.13;;;12.66;94.88
6899;BME280;3488;42.616;23.350;2023-02-28T11:57:44;63310.25;;;12.67;94.80
6899;BME280;3488;42.616;23.350;2023-02-28T12:00:32;63261.03;;;12.22;98.04
6899;BME280;3488;42.616;23.350;2023-02-28T12:03:15;63268.34;;;12.32;98.25
6899;BME280;3488;42.616;23.350;2023-02-28T12:05:45;63253.31;;;12.17;98.35
6899;BME280;3488;42.616;23.350;2023-02-28T12:08:26;63252.22;;;12.14;99.60
6899;BME280;3488;42.616;23.350;2023-02-28T12:11:07;63285.44;;;12.48;99.25
6899;BME280;3488;42.616;23.350;2023-02-28T12:13:46;63279.25;;;12.42;99.93
6899;BME280;3488;42.616;23.350;2023-02-28T12:16:38;63252.78;;;12.17;99.54
6899;BME280;3488;42.616;23.350;2023-02-28T12:19:19;63239.84;;;12.04;100.00
6899;BME280;3488;42.616;23.350;2023-02-28T12:22:13;63246.56;;;12.11;100.00
6899;BME280;3488;42.616;23.350;2023-02-28T12:24:55;63251.72;;;12.13;99.33
6899;BME280;3488;42.616;23.350;2023-02-28T12:27:29;63267.31;;;12.31;99.92
6899;BME280;3488;42.616;23.350;2023-02-28T12:30:02;63285.97;;;12.49;98.75
6899;BME280;3488;42.616;23.350;2023-02-28T12:32:36;63275.59;;;12.39;98.66
6899;BME280;3488;42.616;23.350;2023-02-28T12:35:12;63331.06;;;12.93;97.60
6899;BME280;3488;42.616;23.350;2023-02-28T12:37:44;63336.28;;;13.00;96.46
6899;BME280;3488;42.616;23.350;2023-02-28T12:40:17;63380.88;;;13.41;94.00
6899;BME280;3488;42.616;23.350;2023-02-28T12:42:49;63336.81;;;13.01;94.58
6899;BME280;3488;42.616;23.350;2023-02-28T12:45:19;63351.31;;;13.12;94.92
6899;BME280;3488;42.616;23.350;2023-02-28T12:47:50;63381.38;;;13.39;92.39
6899;BME280;3488;42.616;23.350;2023-02-28T12:50:19;63395.94;;;13.55;91.58
6899;BME280;3488;42.616;23.350;2023-02-28T12:52:54;63345.59;;;13.07;90.25
6899;BME280;3488;42.616;23.350;2023-02-28T12:55:31;63363.22;;;13.21;88.87
6899;BME280;3488;42.616;23.350;2023-02-28T12:58:12;63353.88;;;13.12;92.43
6899;BME280;3488;42.616;23.350;2023-02-28T13:00:50;63351.84;;;13.13;93.51
6899;BME280;3488;42.616;23.350;2023-02-28T13:03:37;63342.44;;;13.01;94.45
6899;BME280;3488;42.616;23.350;2023-02-28T13:09:08;63327.97;;;12.90;95.89
6899;BME280;3488;42.616;23.350;2023-02-28T13:11:41;63272.53;;;12.38;98.04
6899;BME280;3488;42.616;23.350;2023-02-28T13:14:21;63304.13;;;12.66;98.24
6899;BME280;3488;42.616;23.350;2023-02-28T13:16:56;63319.66;;;12.82;97.89
6899;BME280;3488;42.616;23.350;2023-02-28T13:19:26;63331.63;;;12.96;94.70
6899;BME280;3488;42.616;23.350;2023-02-28T13:21:56;63319.16;;;12.81;96.13
6899;BME280;3488;42.616;23.350;2023-02-28T13:24:45;63347.72;;;13.11;93.92
6899;BME280;3488;42.616;23.350;2023-02-28T13:27:32;63369.50;;;13.32;91.47
6899;BME280;3488;42.616;23.350;2023-02-28T13:33:24;63343.06;;;13.07;91.44
6899;BME280;3488;42.616;23.350;2023-02-28T13:36:10;63322.81;;;12.87;93.08
6899;BME280;3488;42.616;23.350;2023-02-28T13:38:50;63288.06;;;12.51;95.17
6899;BME280;3488;42.616;23.350;2023-02-28T13:41:47;63336.78;;;12.98;93.79
6899;BME280;3488;42.616;23.350;2023-02-28T13:44:17;63331.06;;;12.93;94.10